TimeEDT,TemperatureF,Dew PointF,Humidity,Sea Level PressureIn,VisibilityMPH,Wind Direction,Wind SpeedMPH,Gust SpeedMPH,PrecipitationIn,Events,Conditions,WindDirDegrees,DateUTC
12:51 AM,46.0,44.1,93,30.25,6.0,Calm,Calm,-,N/A,,Clear,0,2012-09-16 04:51:00
12:54 AM,46.4,44.6,93,30.24,1.5,Calm,Calm,-,N/A,,Partly Cloudy,0,2012-09-16 04:54:00
12:56 AM,46.4,44.6,93,30.24,0.8,Calm,Calm,-,N/A,,Mist,0,2012-09-16 04:56:00
1:06 AM,44.6,42.8,93,30.23,1.2,Calm,Calm,-,N/A,,Partly Cloudy,0,2012-09-16 05:06:00
1:09 AM,44.6,42.8,93,30.23,4.0,Calm,Calm,-,N/A,,Partly Cloudy,0,2012-09-16 05:09:00
1:51 AM,45.0,43.0,93,30.24,1.5,Calm,Calm,-,N/A,,Scattered Clouds,0,2012-09-16 05:51:00
1:54 AM,44.6,42.8,93,30.23,0.8,Calm,Calm,-,N/A,,Mist,0,2012-09-16 05:54:00
2:36 AM,42.8,42.8,100,30.22,1.2,Calm,Calm,-,N/A,,Scattered Clouds,0,2012-09-16 06:36:00
2:39 AM,44.6,42.8,93,30.22,3.0,Calm,Calm,-,N/A,,Scattered Clouds,0,2012-09-16 06:39:00
2:51 AM,45.0,43.0,93,30.22,2.5,Calm,Calm,-,N/A,,Scattered Clouds,0,2012-09-16 06:51:00
2:55 AM,44.6,42.8,93,30.22,1.0,Calm,Calm,-,N/A,,Mist,0,2012-09-16 06:55:00
3:02 AM,44.6,44.6,100,30.22,0.5,Calm,Calm,-,N/A,Fog,Fog,0,2012-09-16 07:02:00
3:34 AM,44.6,44.6,100,30.21,1.0,Calm,Calm,-,N/A,,Overcast,0,2012-09-16 07:34:00
3:49 AM,44.6,44.6,100,30.21,3.0,Calm,Calm,-,N/A,,Mostly Cloudy,0,2012-09-16 07:49:00
3:51 AM,45.0,44.1,97,30.22,3.0,Calm,Calm,-,N/A,,Scattered Clouds,0,2012-09-16 07:51:00
4:04 AM,44.6,44.6,100,30.22,2.5,Calm,Calm,-,N/A,,Mostly Cloudy,0,2012-09-16 08:04:00
4:10 AM,44.6,44.6,100,30.21,0.8,Calm,Calm,-,N/A,,Mist,0,2012-09-16 08:10:00
4:51 AM,45.0,44.1,97,30.22,1.2,Calm,Calm,-,N/A,,Overcast,0,2012-09-16 08:51:00
5:14 AM,44.6,44.6,100,30.21,3.0,Calm,Calm,-,N/A,,Mostly Cloudy,0,2012-09-16 09:14:00
5:22 AM,44.6,42.8,93,30.21,3.0,Calm,Calm,-,N/A,,Scattered Clouds,0,2012-09-16 09:22:00
5:28 AM,44.6,42.8,93,30.21,1.8,Calm,Calm,-,N/A,,Partly Cloudy,0,2012-09-16 09:28:00
5:35 AM,44.6,42.8,93,30.21,2.5,Calm,Calm,-,N/A,,Partly Cloudy,0,2012-09-16 09:35:00
5:42 AM,44.6,42.8,93,30.21,6.0,Calm,Calm,-,N/A,,Scattered Clouds,0,2012-09-16 09:42:00
5:49 AM,44.6,44.6,100,30.21,4.0,Calm,Calm,-,N/A,,Mostly Cloudy,0,2012-09-16 09:49:00
5:51 AM,45.0,44.1,97,30.22,3.0,Calm,Calm,-,N/A,,Mostly Cloudy,0,2012-09-16 09:51:00
5:55 AM,44.6,44.6,100,30.21,1.8,Calm,Calm,-,N/A,,Mostly Cloudy,0,2012-09-16 09:55:00
6:07 AM,46.4,44.6,93,30.21,0.5,Calm,Calm,-,N/A,Fog,Fog,0,2012-09-16 10:07:00
6:51 AM,46.0,45.0,96,30.24,0.5,Calm,Calm,-,N/A,Fog,Fog,0,2012-09-16 10:51:00
7:14 AM,46.4,44.6,93,30.23,0.2,Calm,Calm,-,N/A,Fog,Fog,0,2012-09-16 11:14:00
7:51 AM,46.0,46.0,100,30.25,0.2,Calm,Calm,-,N/A,Fog,Fog,0,2012-09-16 11:51:00
8:51 AM,48.0,46.9,96,30.25,0.2,Calm,Calm,-,N/A,Fog,Fog,0,2012-09-16 12:51:00
9:08 AM,48.2,46.4,93,30.22,0.8,Calm,Calm,-,0.01,,Overcast,0,2012-09-16 13:08:00
9:17 AM,48.2,46.4,93,30.23,2.0,Calm,Calm,-,0.01,,Overcast,0,2012-09-16 13:17:00
9:26 AM,48.2,46.4,93,30.23,4.0,Calm,Calm,-,N/A,,Overcast,0,2012-09-16 13:26:00
9:51 AM,50.0,48.9,96,30.24,10.0,Calm,Calm,-,0.01,,Overcast,0,2012-09-16 13:51:00
10:12 AM,50.0,48.2,94,30.22,10.0,Calm,Calm,-,N/A,,Scattered Clouds,0,2012-09-16 14:12:00
10:51 AM,53.1,48.9,86,30.24,10.0,Calm,Calm,-,N/A,,Clear,0,2012-09-16 14:51:00
11:51 AM,55.9,48.9,77,30.22,10.0,Calm,Calm,-,N/A,,Clear,0,2012-09-16 15:51:00
12:51 PM,59.0,50.0,72,30.21,10.0,Calm,Calm,-,N/A,,Clear,0,2012-09-16 16:51:00
1:51 PM,64.9,50.0,58,30.17,10.0,Calm,Calm,-,N/A,,Clear,0,2012-09-16 17:51:00
2:51 PM,68.0,50.0,52,30.14,10.0,North,3.5,-,0.01,,Clear,350,2012-09-16 18:51:00
3:51 PM,72.0,50.0,46,30.12,10.0,North,6.9,-,N/A,,Clear,10,2012-09-16 19:51:00
4:51 PM,71.1,46.9,42,30.12,10.0,North,5.8,-,N/A,,Clear,350,2012-09-16 20:51:00
5:51 PM,70.0,46.0,42,30.11,10.0,NW,5.8,-,N/A,,Clear,320,2012-09-16 21:51:00
6:51 PM,66.9,50.0,54,30.12,10.0,Calm,Calm,-,N/A,,Clear,0,2012-09-16 22:51:00
7:51 PM,57.0,51.1,81,30.14,10.0,Calm,Calm,-,N/A,,Clear,0,2012-09-16 23:51:00
8:51 PM,52.0,48.0,86,30.16,10.0,Calm,Calm,-,N/A,,Clear,0,2012-09-17 00:51:00
9:51 PM,50.0,46.9,89,30.16,10.0,Calm,Calm,-,N/A,,Clear,0,2012-09-17 01:51:00
10:51 PM,48.9,46.0,90,30.17,10.0,Calm,Calm,-,N/A,,Clear,0,2012-09-17 02:51:00
11:51 PM,46.0,44.1,93,30.17,7.0,Calm,Calm,-,N/A,,Clear,0,2012-09-17 03:51:00